createdAt,value
2019-05-13T00:01:36.864Z,99910.41
2019-05-13T00:04:09.328Z,99908.61
2019-05-13T00:06:53.199Z,99904.00
2019-05-13T00:09:16.790Z,99909.30
2019-05-13T00:11:49.554Z,99906.81
2019-05-13T00:14:23.918Z,99901.52
2019-05-13T00:16:56.964Z,99900.02
2019-05-13T00:19:29.371Z,99902.39
2019-05-13T00:22:03.793Z,99898.15
2019-05-13T00:24:36.144Z,99899.48
2019-05-13T00:27:08.449Z,99894.06
2019-05-13T00:29:40.238Z,99895.30
2019-05-13T00:32:13.434Z,99897.75
2019-05-13T00:34:45.673Z,99898.41
2019-05-13T00:37:18.212Z,99897.45
2019-05-13T00:39:50.300Z,99898.67
2019-05-13T00:42:24.557Z,99901.57
2019-05-13T00:44:57.677Z,99899.38
2019-05-13T00:47:30.170Z,99908.27
2019-05-13T00:50:03.700Z,99907.89
2019-05-13T00:52:36.601Z,99914.10
2019-05-13T00:55:10.065Z,99909.77
2019-05-13T00:57:43.662Z,99912.39
2019-05-13T01:00:28.294Z,99919.46
2019-05-13T01:03:03.764Z,99917.69
2019-05-13T01:05:36.234Z,99920.14
2019-05-13T01:08:08.303Z,99915.68
2019-05-13T01:10:40.989Z,99918.66
2019-05-13T01:13:13.657Z,99916.13
2019-05-13T01:15:46.815Z,99917.05
2019-05-13T01:18:18.935Z,99920.05
2019-05-13T01:20:50.984Z,99916.59
2019-05-13T01:23:24.020Z,99914.78
2019-05-13T01:25:57.262Z,99908.80
2019-05-13T01:28:29.645Z,99909.73
2019-05-13T01:31:04.190Z,99909.14
2019-05-13T01:33:37.415Z,99910.98
2019-05-13T01:36:09.550Z,99912.84
2019-05-13T01:38:43.574Z,99915.09
2019-05-13T01:41:16.679Z,99910.10
2019-05-13T01:43:48.731Z,99910.19
2019-05-13T01:46:24.091Z,99914.02
2019-05-13T01:48:56.376Z,99915.72
2019-05-13T01:51:28.497Z,99916.27
2019-05-13T01:54:03.965Z,99919.08
2019-05-13T01:56:35.957Z,99920.36
2019-05-13T01:59:08.510Z,99916.58
2019-05-13T02:01:44.056Z,99923.91
2019-05-13T02:04:16.180Z,99925.94
2019-05-13T02:06:48.503Z,99930.27
2019-05-13T02:09:24.324Z,99928.41
2019-05-13T02:11:56.219Z,99931.14
2019-05-13T02:14:28.941Z,99932.91
2019-05-13T02:17:04.291Z,99930.22
2019-05-13T02:19:40.772Z,99928.98
2019-05-13T02:22:14.721Z,99935.20
2019-05-13T02:24:47.532Z,99940.09
2019-05-13T02:27:20.250Z,99936.92
2019-05-13T02:29:54.000Z,99940.89
2019-05-13T02:32:26.435Z,99934.68
2019-05-13T02:35:02.230Z,99940.84
2019-05-13T02:37:34.969Z,99941.15
2019-05-13T02:40:07.358Z,99941.33
2019-05-13T02:42:43.510Z,99943.09
2019-05-13T02:45:15.007Z,99942.17
2019-05-13T02:47:48.048Z,99953.01
2019-05-13T02:50:22.614Z,99952.63
2019-05-13T02:52:54.840Z,99949.30
2019-05-13T02:55:27.850Z,99955.58
2019-05-13T02:58:03.355Z,99953.25
2019-05-13T03:00:35.328Z,99958.44
2019-05-13T03:03:08.384Z,99954.48
2019-05-13T03:05:42.869Z,99956.40
2019-05-13T03:08:34.200Z,99966.92
2019-05-13T03:10:52.993Z,99970.49
2019-05-13T03:13:25.318Z,99972.48
2019-05-13T03:16:15.641Z,99973.19
2019-05-13T03:18:48.074Z,99970.14
2019-05-13T03:21:23.157Z,99970.93
2019-05-13T03:23:55.454Z,99979.69
2019-05-13T03:26:28.497Z,99977.36
2019-05-13T03:29:02.813Z,99975.52
2019-05-13T03:31:36.355Z,99981.95
2019-05-13T03:34:14.620Z,99973.94
2019-05-13T03:36:45.860Z,99979.61
2019-05-13T03:39:17.078Z,99986.07
2019-05-13T03:41:53.821Z,99988.23
2019-05-13T03:44:32.536Z,99989.71
2019-05-13T03:47:05.838Z,99992.83
2019-05-13T03:49:42.198Z,99999.98
2019-05-13T03:52:13.765Z,99996.55
2019-05-13T03:54:46.977Z,99999.56
2019-05-13T03:57:18.018Z,100003.27
2019-05-13T03:59:52.584Z,99998.30
2019-05-13T04:02:26.043Z,100005.97
2019-05-13T04:05:00.477Z,100007.14
2019-05-13T04:07:32.740Z,100006.84
2019-05-13T04:10:04.902Z,100007.31
2019-05-13T04:12:37.276Z,100008.70
2019-05-13T04:15:12.597Z,100011.91
2019-05-13T04:17:45.221Z,100017.55
2019-05-13T04:20:17.625Z,100021.66
2019-05-13T04:22:52.962Z,100026.33
2019-05-13T04:25:24.843Z,100027.11
2019-05-13T04:27:57.131Z,100033.19
2019-05-13T04:30:32.721Z,100032.84
2019-05-13T04:33:04.695Z,100036.27
2019-05-13T04:35:37.578Z,100041.98
2019-05-13T04:38:13.384Z,100043.80
2019-05-13T04:40:47.145Z,100041.64
2019-05-13T04:43:23.242Z,100042.97
2019-05-13T04:45:54.155Z,100044.86
2019-05-13T04:48:26.625Z,100045.42
2019-05-13T04:51:03.000Z,100038.20
2019-05-13T04:53:34.401Z,100042.87
2019-05-13T04:56:08.940Z,100043.09
2019-05-13T04:58:42.795Z,100044.41
2019-05-13T05:01:40.435Z,100040.87
2019-05-13T05:04:23.963Z,100039.46
2019-05-13T05:07:32.519Z,100047.42
2019-05-13T05:11:03.280Z,100043.08
2019-05-13T05:14:22.428Z,100040.42
2019-05-13T05:17:43.030Z,100041.72
2019-05-13T05:20:46.572Z,100047.83
2019-05-13T05:24:33.162Z,100049.20
2019-05-13T05:28:12.700Z,100054.20
2019-05-13T05:31:33.072Z,100050.16
2019-05-13T05:35:11.855Z,100050.23
2019-05-13T05:38:43.397Z,100051.63
2019-05-13T05:41:23.340Z,100057.86
2019-05-13T05:43:58.888Z,100058.59
2019-05-13T05:46:33.247Z,100061.16
2019-05-13T05:49:12.742Z,100060.49
2019-05-13T05:51:51.268Z,100061.17
2019-05-13T05:54:28.657Z,100054.92
2019-05-13T05:57:05.263Z,100066.17
2019-05-13T05:59:42.684Z,100063.09
2019-05-13T06:02:15.565Z,100065.07
2019-05-13T06:04:52.021Z,100066.13
2019-05-13T06:07:26.448Z,100061.53
2019-05-13T06:09:59.187Z,100062.70
2019-05-13T06:12:32.575Z,100058.55
2019-05-13T06:15:36.273Z,100058.73
2019-05-13T06:18:07.415Z,100056.73
2019-05-13T06:20:41.666Z,100056.83
2019-05-13T06:23:14.495Z,100054.16
2019-05-13T06:25:46.642Z,100060.56
2019-05-13T06:28:18.689Z,100061.70
2019-05-13T06:30:52.204Z,100066.48
2019-05-13T06:33:25.039Z,100067.84
2019-05-13T06:35:57.365Z,100067.77
2019-05-13T06:38:31.644Z,100058.91
2019-05-13T06:41:10.855Z,100058.23
2019-05-13T06:43:39.163Z,100053.67
2019-05-13T06:46:12.419Z,100054.09
2019-05-13T06:48:45.252Z,100056.82
2019-05-13T06:51:17.789Z,100061.27
2019-05-13T06:53:51.785Z,100064.20
2019-05-13T06:56:25.634Z,100062.62
2019-05-13T06:59:01.272Z,100063.60
2019-05-13T07:01:32.931Z,100062.39
2019-05-13T07:04:05.541Z,100062.71
2019-05-13T07:06:37.950Z,100060.46
2019-05-13T07:09:12.014Z,100051.06
2019-05-13T07:11:44.492Z,100061.89
2019-05-13T07:14:16.935Z,100066.50
2019-05-13T07:16:49.267Z,100063.46
2019-05-13T07:19:23.863Z,100064.75
2019-05-13T07:21:56.986Z,100059.39
2019-05-13T07:24:31.996Z,100061.52
2019-05-13T07:27:04.769Z,100061.00
2019-05-13T07:29:35.664Z,100057.57
2019-05-13T07:32:07.791Z,100059.22
2019-05-13T07:34:43.770Z,100057.34
2019-05-13T07:37:16.295Z,100061.97
2019-05-13T07:39:49.005Z,100053.93
2019-05-13T07:42:22.289Z,100056.44
2019-05-13T07:44:55.062Z,100052.92
2019-05-13T07:47:27.448Z,100049.80
2019-05-13T07:50:02.480Z,100047.60
2019-05-13T07:52:34.608Z,100048.70
2019-05-13T07:55:07.216Z,100049.52
2019-05-13T07:57:42.082Z,100045.38
2019-05-13T08:00:13.684Z,100047.66
2019-05-13T08:02:46.361Z,100042.93
2019-05-13T08:05:22.227Z,100049.69
2019-05-13T08:07:53.772Z,100044.70
2019-05-13T08:10:26.233Z,100048.88
2019-05-13T08:12:59.492Z,100040.91
2019-05-13T08:15:33.623Z,100045.47
2019-05-13T08:18:06.267Z,100036.39
2019-05-13T08:20:38.339Z,100036.28
2019-05-13T08:23:13.608Z,100045.14
2019-05-13T08:25:46.374Z,100041.84
2019-05-13T08:28:19.197Z,100031.16
2019-05-13T08:30:52.083Z,100029.75
2019-05-13T08:33:23.114Z,100022.77
2019-05-13T08:35:58.640Z,100033.25
2019-05-13T08:38:31.879Z,100030.69
2019-05-13T08:41:03.926Z,100033.93
2019-05-13T08:43:36.929Z,100021.88
2019-05-13T08:46:12.345Z,100028.71
2019-05-13T08:48:45.824Z,100021.84
2019-05-13T08:51:19.012Z,100020.17
2019-05-13T08:53:51.840Z,100023.14
2019-05-13T08:56:24.814Z,100021.58
2019-05-13T08:58:57.651Z,100020.11
2019-05-13T09:01:28.717Z,100018.98
2019-05-13T09:04:02.443Z,100023.19
2019-05-13T09:06:34.503Z,100016.05
2019-05-13T09:09:11.506Z,100008.17
2019-05-13T09:11:43.558Z,100015.95
2019-05-13T09:14:16.078Z,100023.69
2019-05-13T09:16:48.718Z,100014.29
2019-05-13T09:19:21.550Z,100007.95
2019-05-13T09:21:53.403Z,100018.34
2019-05-13T09:24:34.119Z,100012.42
2019-05-13T09:27:01.983Z,100007.88
2019-05-13T09:29:34.709Z,99999.48
2019-05-13T09:32:07.772Z,99998.06
2019-05-13T09:34:42.191Z,100012.20
2019-05-13T09:37:14.637Z,100004.77
2019-05-13T09:39:46.938Z,100000.11
2019-05-13T09:42:21.490Z,100005.57
2019-05-13T09:44:53.705Z,100003.16
2019-05-13T09:47:28.459Z,99996.84
2019-05-13T09:50:00.491Z,99994.48
2019-05-13T09:52:32.036Z,99985.64
2019-05-13T09:55:03.753Z,99989.62
2019-05-13T09:57:36.028Z,99996.36
2019-05-13T10:00:11.987Z,99989.27
2019-05-13T10:02:43.608Z,100000.14
2019-05-13T10:05:15.495Z,99982.62
2019-05-13T10:07:47.919Z,99983.79
2019-05-13T10:10:22.371Z,99980.58
2019-05-13T10:13:07.813Z,99989.42
2019-05-13T10:15:28.888Z,99984.66
2019-05-13T10:18:01.907Z,99983.38
2019-05-13T10:20:53.843Z,99976.67
2019-05-13T10:23:27.754Z,99975.23
2019-05-13T10:26:03.750Z,99977.19
2019-05-13T10:28:36.578Z,99975.21
2019-05-13T10:31:11.773Z,99972.14
2019-05-13T10:33:43.785Z,99969.34
2019-05-13T10:36:15.141Z,99971.28
2019-05-13T10:38:47.424Z,99967.64
2019-05-13T10:41:21.617Z,99964.58
2019-05-13T10:43:53.835Z,99961.73
2019-05-13T10:46:25.947Z,99963.19
2019-05-13T10:48:58.616Z,99961.34
2019-05-13T10:51:32.700Z,99961.89
2019-05-13T10:54:05.284Z,99961.00
2019-05-13T10:56:38.166Z,99952.34
2019-05-13T10:59:12.637Z,99945.83
2019-05-13T11:01:44.639Z,99936.02
2019-05-13T11:04:17.362Z,99930.82
2019-05-13T11:06:52.446Z,99936.16
2019-05-13T11:09:24.669Z,99940.16
2019-05-13T11:11:57.674Z,99944.69
2019-05-13T11:14:32.393Z,99949.06
2019-05-13T11:17:05.879Z,99945.30
2019-05-13T11:19:38.796Z,99940.32
2019-05-13T11:22:12.469Z,99928.84
2019-05-13T11:24:45.161Z,99920.56
2019-05-13T11:27:17.600Z,99915.40
2019-05-13T11:29:52.282Z,99919.95
2019-05-13T11:32:23.965Z,99918.53
2019-05-13T11:34:57.017Z,99911.41
2019-05-13T11:37:29.155Z,99907.90
2019-05-13T11:40:00.013Z,99907.89
2019-05-13T11:42:34.314Z,99902.31
2019-05-13T11:45:06.845Z,99908.00
2019-05-13T11:47:40.927Z,99897.69
2019-05-13T11:50:13.293Z,99901.84
2019-05-13T11:52:45.463Z,99901.87
2019-05-13T11:55:18.681Z,99895.84
2019-05-13T11:57:53.067Z,99901.92
2019-05-13T12:00:55.363Z,99895.89
2019-05-13T12:03:27.908Z,99899.72
2019-05-13T12:06:02.259Z,99885.95
2019-05-13T12:08:35.436Z,99879.42
2019-05-13T12:11:08.771Z,99898.31
2019-05-13T12:13:42.633Z,99889.56
2019-05-13T12:16:15.291Z,99886.28
2019-05-13T12:18:48.383Z,99887.98
2019-05-13T12:21:21.480Z,99886.41
2019-05-13T12:23:53.579Z,99877.30
2019-05-13T12:26:25.982Z,99883.01
2019-05-13T12:28:56.777Z,99871.42
2019-05-13T12:31:33.392Z,99872.69
2019-05-13T12:34:03.785Z,99867.98
2019-05-13T12:36:36.925Z,99874.75
2019-05-13T12:39:13.806Z,99867.37
2019-05-13T12:41:43.719Z,99855.31
2019-05-13T12:44:15.833Z,99861.06
2019-05-13T12:46:50.346Z,99853.56
2019-05-13T12:49:22.069Z,99852.71
2019-05-13T12:52:00.628Z,99858.25
2019-05-13T12:54:28.525Z,99863.70
2019-05-13T12:57:03.566Z,99855.24
2019-05-13T12:59:33.450Z,99849.24
2019-05-13T13:02:05.513Z,99852.48
2019-05-13T13:04:37.571Z,99843.91
2019-05-13T13:07:13.165Z,99836.92
2019-05-13T13:09:44.224Z,99827.23
2019-05-13T13:12:16.942Z,99832.16
2019-05-13T13:14:54.112Z,99839.73
2019-05-13T13:17:24.399Z,99844.16
2019-05-13T13:20:06.106Z,99828.45
2019-05-13T13:22:32.660Z,99831.33
2019-05-13T13:25:05.228Z,99825.70
2019-05-13T13:28:03.146Z,99820.78
2019-05-13T13:30:12.069Z,99813.80
2019-05-13T13:32:45.623Z,99827.43
2019-05-13T13:35:21.809Z,99823.00
2019-05-13T13:37:55.628Z,99820.04
2019-05-13T13:40:30.593Z,99816.25
2019-05-13T13:43:05.384Z,99809.28
2019-05-13T13:46:05.211Z,99807.61
2019-05-13T13:48:13.356Z,99806.19
2019-05-13T13:50:45.235Z,99809.43
2019-05-13T13:53:18.281Z,99807.86
2019-05-13T13:55:55.504Z,99799.08
2019-05-13T13:58:25.782Z,99796.50
2019-05-13T14:01:07.217Z,99817.73
2019-05-13T14:03:34.322Z,99803.94
2019-05-13T14:06:07.344Z,99799.55
2019-05-13T14:08:41.374Z,99791.14
2019-05-13T14:11:13.162Z,99794.07
2019-05-13T14:13:48.571Z,99782.52
2019-05-13T14:16:29.626Z,99786.31
2019-05-13T14:18:55.444Z,99787.23
2019-05-13T14:21:28.056Z,99777.92
2019-05-13T14:23:59.420Z,99778.72
2019-05-13T14:26:33.098Z,99781.30
2019-05-13T14:29:05.377Z,99771.78
2019-05-13T14:31:37.739Z,99794.23
2019-05-13T14:34:11.476Z,99774.94
2019-05-13T14:36:42.980Z,99778.28
2019-05-13T14:39:14.113Z,99771.36
2019-05-13T14:41:46.868Z,99776.14
2019-05-13T14:44:21.868Z,99771.45
2019-05-13T14:46:54.220Z,99771.91
2019-05-13T14:49:28.139Z,99771.08
2019-05-13T14:52:02.392Z,99762.81
2019-05-13T14:54:34.767Z,99759.11
2019-05-13T14:57:05.618Z,99769.40
2019-05-13T14:59:38.210Z,99771.85
2019-05-13T15:02:11.945Z,99779.65
2019-05-13T15:04:45.229Z,99778.36
2019-05-13T15:07:17.471Z,99771.70
2019-05-13T15:09:51.489Z,99760.92
2019-05-13T15:12:23.525Z,99770.58
2019-05-13T15:14:57.006Z,99784.78
2019-05-13T15:17:32.386Z,99784.81
2019-05-13T15:20:05.604Z,99773.44
2019-05-13T15:22:38.221Z,99780.37
2019-05-13T15:25:11.419Z,99769.61
2019-05-13T15:27:44.414Z,99769.81
2019-05-13T15:30:37.291Z,99767.75
2019-05-13T15:33:08.696Z,99761.38
2019-05-13T15:35:41.950Z,99773.33
2019-05-13T15:38:14.351Z,99767.66
2019-05-13T15:40:46.742Z,99765.97
2019-05-13T15:43:19.261Z,99757.05
2019-05-13T15:45:51.508Z,99762.52
2019-05-13T15:48:23.361Z,99767.22
2019-05-13T15:50:56.089Z,99756.48
2019-05-13T15:53:28.877Z,99754.00
2019-05-13T15:56:02.920Z,99751.63
2019-05-13T15:58:40.018Z,99765.28
2019-05-13T16:01:09.207Z,99758.52
2019-05-13T16:03:42.299Z,99754.14
2019-05-13T16:06:14.867Z,99755.03
2019-05-13T16:08:47.350Z,99761.59
2019-05-13T16:11:21.751Z,99759.55
2019-05-13T16:13:52.983Z,99767.28
2019-05-13T16:16:25.513Z,99773.91
2019-05-13T16:18:57.837Z,99766.72
2019-05-13T16:21:31.981Z,99763.73
2019-05-13T16:24:05.195Z,99766.97
2019-05-13T16:26:37.585Z,99772.56
2019-05-13T16:29:08.383Z,99758.36
2019-05-13T16:31:41.556Z,99755.72
2019-05-13T16:34:14.363Z,99754.20
2019-05-13T16:36:46.554Z,99755.37
2019-05-13T16:39:17.319Z,99750.58
2019-05-13T16:41:51.657Z,99761.73
2019-05-13T16:44:24.196Z,99773.29
2019-05-13T16:46:57.573Z,99767.99
2019-05-13T16:49:31.825Z,99773.20
2019-05-13T16:52:04.110Z,99771.23
2019-05-13T16:54:36.279Z,99767.66
2019-05-13T16:57:08.767Z,99770.84
2019-05-13T16:59:42.363Z,99775.84
2019-05-13T17:02:15.040Z,99783.24
2019-05-13T17:04:48.492Z,99780.33
2019-05-13T17:07:21.256Z,99784.29
2019-05-13T17:09:53.758Z,99780.22
2019-05-13T17:12:26.453Z,99793.27
2019-05-13T17:15:01.285Z,99800.04
2019-05-13T17:17:33.486Z,99792.33
2019-05-13T17:20:05.974Z,99797.80
2019-05-13T17:22:37.803Z,99794.53
2019-05-13T17:25:12.722Z,99805.94
2019-05-13T17:27:46.415Z,99803.22
2019-05-13T17:30:21.838Z,99816.17
2019-05-13T17:32:54.449Z,99819.48
2019-05-13T17:35:26.779Z,99821.13
2019-05-13T17:37:59.136Z,99823.83
2019-05-13T17:40:31.983Z,99825.23
2019-05-13T17:43:04.100Z,99830.54
2019-05-13T17:45:36.723Z,99836.78
2019-05-13T17:48:25.482Z,99842.55
2019-05-13T17:50:43.565Z,99840.80
2019-05-13T17:53:15.730Z,99845.03
2019-05-13T17:55:48.470Z,99839.86
2019-05-13T17:58:21.972Z,99839.38
2019-05-13T18:00:53.581Z,99839.08
2019-05-13T18:03:26.430Z,99844.88
2019-05-13T18:05:57.284Z,99835.13
2019-05-13T18:08:32.062Z,99840.24
2019-05-13T18:11:04.680Z,99845.30
2019-05-13T18:13:37.014Z,99845.84
2019-05-13T18:16:09.079Z,99846.70
2019-05-13T18:18:46.936Z,99854.66
2019-05-13T18:21:15.764Z,99852.20
2019-05-13T18:23:49.194Z,99855.34
2019-05-13T18:26:21.694Z,99857.50
2019-05-13T18:28:54.300Z,99859.27
2019-05-13T18:31:26.483Z,99855.59
2019-05-13T18:34:01.425Z,99860.16
2019-05-13T18:36:34.451Z,99860.76
2019-05-13T18:39:09.453Z,99855.34
2019-05-13T18:41:43.142Z,99857.13
2019-05-13T18:44:17.488Z,99851.32
2019-05-13T18:46:52.294Z,99857.53
2019-05-13T18:49:25.607Z,99858.72
2019-05-13T18:51:58.115Z,99864.72
2019-05-13T18:54:31.568Z,99868.09
2019-05-13T18:57:04.338Z,99866.22
2019-05-13T18:59:37.127Z,99865.14
2019-05-13T19:02:12.043Z,99869.61
2019-05-13T19:04:44.241Z,99869.78
2019-05-13T19:17:02.955Z,99882.55
2019-05-13T19:20:26.152Z,99892.36
2019-05-13T19:23:01.113Z,99887.77
2019-05-13T19:25:33.948Z,99890.75
2019-05-13T19:28:06.765Z,99887.46
2019-05-13T19:30:40.983Z,99891.20
2019-05-13T19:33:14.470Z,99886.23
2019-05-13T19:35:46.908Z,99887.17
2019-05-13T19:38:21.186Z,99886.61
2019-05-13T19:40:54.800Z,99893.48
2019-05-13T19:43:27.864Z,99895.09
2019-05-13T19:46:01.627Z,99887.69
2019-05-13T19:48:35.465Z,99896.42
2019-05-13T19:51:09.125Z,99893.22
2019-05-13T19:53:44.540Z,99894.84
2019-05-13T19:56:17.486Z,99891.97
2019-05-13T19:58:50.380Z,99889.34
2019-05-13T20:01:22.878Z,99888.43
2019-05-13T20:03:59.264Z,99885.03
2019-05-13T20:06:32.116Z,99883.70
2019-05-13T20:09:06.279Z,99883.36
2019-05-13T20:11:41.799Z,99879.53
2019-05-13T20:14:13.708Z,99879.25
2019-05-13T20:16:46.246Z,99876.98
2019-05-13T20:19:18.581Z,99880.13
2019-05-13T20:21:51.805Z,99879.81
2019-05-13T20:24:24.332Z,99878.63
2019-05-13T20:26:57.280Z,99878.06
2019-05-13T20:29:30.241Z,99876.58
2019-05-13T20:32:02.340Z,99884.53
2019-05-13T20:34:36.000Z,99881.34
2019-05-13T20:37:08.668Z,99878.19
2019-05-13T20:39:42.467Z,99879.09
2019-05-13T20:42:15.851Z,99874.94
2019-05-13T20:44:48.232Z,99876.91
2019-05-13T20:47:21.446Z,99877.06
2019-05-13T20:50:01.502Z,99876.52
2019-05-13T20:52:26.498Z,99881.88
2019-05-13T20:55:24.823Z,99878.94
2019-05-13T20:57:58.473Z,99880.45
2019-05-13T21:00:31.511Z,99883.72
2019-05-13T21:03:04.366Z,99880.61
2019-05-13T21:05:37.213Z,99884.22
2019-05-13T21:08:10.338Z,99880.94
2019-05-13T21:10:42.254Z,99876.57
2019-05-13T21:13:14.368Z,99877.06
2019-05-13T21:15:47.409Z,99878.13
2019-05-13T21:18:22.170Z,99873.77
2019-05-13T21:20:54.950Z,99872.28
2019-05-13T21:23:27.031Z,99868.31
2019-05-13T21:26:01.641Z,99861.50
2019-05-13T21:28:34.337Z,99862.45
2019-05-13T21:31:06.990Z,99854.16
2019-05-13T21:33:39.970Z,99852.93
2019-05-13T21:36:13.197Z,99856.98
2019-05-13T21:38:44.343Z,99863.19
2019-05-13T21:41:16.902Z,99858.82
2019-05-13T21:43:51.885Z,99859.95
2019-05-13T21:46:23.839Z,99859.31
2019-05-13T21:48:56.032Z,99856.95
2019-05-13T21:51:28.222Z,99853.69
2019-05-13T21:54:01.763Z,99857.20
2019-05-13T21:56:34.832Z,99856.95
2019-05-13T21:59:07.471Z,99848.00
2019-05-13T22:01:42.239Z,99853.77
2019-05-13T22:04:14.732Z,99853.16
2019-05-13T22:06:47.659Z,99851.55
2019-05-13T22:09:22.037Z,99846.93
2019-05-13T22:11:54.859Z,99843.52
2019-05-13T22:14:27.332Z,99845.19
2019-05-13T22:17:01.500Z,99844.31
2019-05-13T22:19:34.083Z,99835.13
2019-05-13T22:22:06.799Z,99838.80
2019-05-13T22:24:41.805Z,99836.19
2019-05-13T22:27:15.781Z,99826.48
2019-05-13T22:29:49.046Z,99827.99
2019-05-13T22:32:21.984Z,99826.56
2019-05-13T22:34:54.479Z,99826.21
2019-05-13T22:37:26.596Z,99832.03
2019-05-13T22:40:01.535Z,99829.45
2019-05-13T22:42:33.968Z,99825.83
2019-05-13T22:45:07.619Z,99823.42
2019-05-13T22:47:41.759Z,99814.45
2019-05-13T22:50:15.348Z,99817.77
2019-05-13T22:52:46.794Z,99813.89
2019-05-13T22:55:18.858Z,99811.20
2019-05-13T22:57:51.323Z,99807.51
2019-05-13T23:00:24.104Z,99807.14
2019-05-13T23:02:56.136Z,99805.88
2019-05-13T23:05:29.149Z,99802.33
2019-05-13T23:08:02.222Z,99804.34
2019-05-13T23:10:34.678Z,99801.30
2019-05-13T23:13:07.448Z,99797.55
2019-05-13T23:15:39.876Z,99798.92
2019-05-13T23:18:11.999Z,99798.62
2019-05-13T23:20:44.998Z,99802.99
2019-05-13T23:23:17.072Z,99793.65
2019-05-13T23:25:50.013Z,99799.57
2019-05-13T23:28:22.611Z,99792.50
2019-05-13T23:30:57.919Z,99792.73
2019-05-13T23:33:31.380Z,99791.57
2019-05-13T23:36:04.653Z,99786.79
2019-05-13T23:38:38.317Z,99785.53
2019-05-13T23:41:11.586Z,99786.66
2019-05-13T23:43:44.512Z,99788.67
2019-05-13T23:46:16.670Z,99777.69
2019-05-13T23:48:51.844Z,99775.06
2019-05-13T23:51:24.588Z,99775.82
2019-05-13T23:53:57.231Z,99772.11
2019-05-13T23:56:31.105Z,99770.01
2019-05-13T23:59:04.528Z,99768.83
